createdAt,value
2018-05-04T00:00:01.789Z,100443.23
2018-05-04T00:02:29.183Z,100443.58
2018-05-04T00:04:56.683Z,100441.47
2018-05-04T00:07:24.078Z,100448.05
2018-05-04T00:09:52.376Z,100447.67
2018-05-04T00:12:19.931Z,100453.25
2018-05-04T00:14:47.331Z,100453.89
2018-05-04T00:17:14.724Z,100452.59
2018-05-04T00:19:42.105Z,100450.50
2018-05-04T00:22:09.542Z,100453.95
2018-05-04T00:24:36.910Z,100445.97
2018-05-04T00:27:04.307Z,100448.81
2018-05-04T00:29:31.754Z,100454.23
2018-05-04T00:31:59.135Z,100453.05
2018-05-04T00:34:26.530Z,100452.39
2018-05-04T00:36:53.944Z,100454.44
2018-05-04T00:39:21.335Z,100459.77
2018-05-04T00:41:48.727Z,100460.20
2018-05-04T00:44:16.121Z,100457.48
2018-05-04T00:46:43.504Z,100462.17
2018-05-04T00:49:10.913Z,100455.29
2018-05-04T00:51:38.317Z,100458.56
2018-05-04T00:54:17.532Z,100459.78
2018-05-04T00:56:44.921Z,100456.19
2018-05-04T00:59:12.313Z,100462.95
2018-05-04T01:01:39.720Z,100462.02
2018-05-04T01:04:07.106Z,100461.59
2018-05-04T01:06:34.505Z,100460.25
2018-05-04T01:09:01.888Z,100454.44
2018-05-04T01:11:29.262Z,100450.29
2018-05-04T01:13:56.656Z,100444.63
2018-05-04T01:16:24.053Z,100448.66
2018-05-04T01:18:51.490Z,100450.65
2018-05-04T01:21:19.731Z,100450.16
2018-05-04T01:23:47.138Z,100448.21
2018-05-04T01:26:14.515Z,100448.23
2018-05-04T01:28:41.928Z,100441.65
2018-05-04T01:31:09.332Z,100444.80
2018-05-04T01:33:36.736Z,100437.49
2018-05-04T01:36:04.169Z,100438.58
2018-05-04T01:38:31.632Z,100442.48
2018-05-04T01:40:59.020Z,100435.03
2018-05-04T01:43:26.396Z,100438.83
2018-05-04T01:45:53.801Z,100435.55
2018-05-04T01:48:21.291Z,100438.34
2018-05-04T01:50:48.668Z,100430.28
2018-05-04T01:53:16.076Z,100438.66
2018-05-04T01:55:43.455Z,100441.64
2018-05-04T01:58:10.849Z,100444.16
2018-05-04T02:00:38.412Z,100444.83
2018-05-04T02:03:05.816Z,100445.37
2018-05-04T02:05:33.245Z,100449.32
2018-05-04T02:08:00.649Z,100452.55
2018-05-04T02:10:28.031Z,100441.75
2018-05-04T02:12:55.435Z,100440.91
2018-05-04T02:15:22.913Z,100445.36
2018-05-04T02:17:50.318Z,100442.15
2018-05-04T02:20:19.344Z,100445.36
2018-05-04T02:22:46.749Z,100442.57
2018-05-04T02:25:14.146Z,100446.39
2018-05-04T02:27:41.539Z,100445.53
2018-05-04T02:30:08.929Z,100444.94
2018-05-04T02:32:36.343Z,100440.54
2018-05-04T02:35:03.737Z,100444.27
2018-05-04T02:37:31.157Z,100443.24
2018-05-04T02:39:58.552Z,100444.80
2018-05-04T02:42:25.987Z,100440.63
2018-05-04T02:44:53.382Z,100442.87
2018-05-04T02:47:20.760Z,100453.17
2018-05-04T02:49:48.173Z,100454.52
2018-05-04T02:52:15.576Z,100452.53
2018-05-04T02:54:42.976Z,100454.13
2018-05-04T02:57:10.414Z,100460.13
2018-05-04T02:59:37.819Z,100463.34
2018-05-04T03:02:05.187Z,100465.18
2018-05-04T03:04:32.912Z,100462.56
2018-05-04T03:07:00.292Z,100470.82
2018-05-04T03:09:27.704Z,100474.07
2018-05-04T03:11:55.133Z,100476.67
2018-05-04T03:14:22.780Z,100474.48
2018-05-04T03:16:50.245Z,100476.67
2018-05-04T03:19:17.656Z,100478.55
2018-05-04T03:21:45.057Z,100477.58
2018-05-04T03:24:12.477Z,100475.86
2018-05-04T03:26:39.859Z,100478.83
2018-05-04T03:29:07.247Z,100475.71
2018-05-04T03:31:34.676Z,100480.38
2018-05-04T03:34:02.071Z,100480.67
2018-05-04T03:36:29.469Z,100487.02
2018-05-04T03:38:56.847Z,100488.56
2018-05-04T03:41:24.231Z,100490.35
2018-05-04T03:43:51.625Z,100494.06
2018-05-04T03:46:19.028Z,100499.94
2018-05-04T03:48:46.424Z,100502.73
2018-05-04T03:51:13.819Z,100510.03
2018-05-04T03:53:41.232Z,100512.09
2018-05-04T03:56:08.629Z,100514.70
2018-05-04T03:58:47.881Z,100515.72
2018-05-04T04:01:27.115Z,100514.07
2018-05-04T04:04:04.165Z,100517.64
2018-05-04T04:06:31.524Z,100514.56
2018-05-04T04:08:58.911Z,100512.81
2018-05-04T04:11:26.368Z,100516.59
2018-05-04T04:13:53.760Z,100512.71
2018-05-04T04:16:21.232Z,100513.49
2018-05-04T04:18:48.567Z,100516.98
2018-05-04T04:21:15.969Z,100520.74
2018-05-04T04:23:43.363Z,100521.34
2018-05-04T04:26:10.807Z,100524.50
2018-05-04T04:28:38.196Z,100527.00
2018-05-04T04:31:05.584Z,100521.20
2018-05-04T04:33:32.987Z,100521.20
2018-05-04T04:36:00.378Z,100527.52
2018-05-04T04:38:27.751Z,100529.94
2018-05-04T04:40:55.239Z,100526.31
2018-05-04T04:43:22.624Z,100529.20
2018-05-04T04:45:50.016Z,100527.19
2018-05-04T04:48:17.391Z,100531.55
2018-05-04T04:50:44.851Z,100536.02
2018-05-04T04:53:12.255Z,100536.88
2018-05-04T04:55:39.630Z,100540.69
2018-05-04T04:58:07.019Z,100549.89
2018-05-04T05:00:35.404Z,100550.59
2018-05-04T05:03:02.839Z,100552.80
2018-05-04T05:05:30.355Z,100553.36
2018-05-04T05:07:57.757Z,100557.72
2018-05-04T05:10:25.153Z,100565.73
2018-05-04T05:12:52.531Z,100566.37
2018-05-04T05:15:19.935Z,100562.27
2018-05-04T05:17:47.327Z,100557.48
2018-05-04T05:20:14.819Z,100557.92
2018-05-04T05:22:42.215Z,100553.03
2018-05-04T05:25:09.593Z,100553.59
2018-05-04T05:27:36.970Z,100551.54
2018-05-04T05:30:04.367Z,100555.98
2018-05-04T05:32:32.399Z,100552.00
2018-05-04T05:35:00.273Z,100556.91
2018-05-04T05:37:27.643Z,100554.30
2018-05-04T05:39:55.115Z,100551.42
2018-05-04T05:42:22.627Z,100549.50
2018-05-04T05:44:49.897Z,100550.86
2018-05-04T05:47:17.289Z,100547.42
2018-05-04T05:49:44.675Z,100550.67
2018-05-04T05:52:12.795Z,100551.55
2018-05-04T05:54:40.237Z,100555.81
2018-05-04T05:57:07.699Z,100552.63
2018-05-04T05:59:35.087Z,100556.46
2018-05-04T06:02:02.476Z,100562.51
2018-05-04T06:04:29.847Z,100564.59
2018-05-04T06:06:57.240Z,100566.83
2018-05-04T06:09:24.780Z,100569.00
2018-05-04T06:11:52.084Z,100568.67
2018-05-04T06:14:19.513Z,100561.36
2018-05-04T06:16:47.044Z,100558.81
2018-05-04T06:19:14.416Z,100552.06
2018-05-04T06:21:41.807Z,100549.75
2018-05-04T06:24:09.180Z,100549.89
2018-05-04T06:26:36.612Z,100551.27
2018-05-04T06:29:04.039Z,100552.44
2018-05-04T06:31:31.425Z,100556.84
2018-05-04T06:33:58.795Z,100559.86
2018-05-04T06:36:26.523Z,100553.69
2018-05-04T06:38:53.903Z,100557.61
2018-05-04T06:41:21.310Z,100559.29
2018-05-04T06:43:48.682Z,100558.61
2018-05-04T06:46:16.090Z,100557.05
2018-05-04T06:48:43.499Z,100560.93
2018-05-04T06:51:10.938Z,100561.05
2018-05-04T06:53:38.337Z,100552.59
2018-05-04T06:56:05.785Z,100551.33
2018-05-04T06:58:33.205Z,100557.58
2018-05-04T07:01:00.588Z,100553.83
2018-05-04T07:03:27.964Z,100553.64
2018-05-04T07:05:55.362Z,100556.20
2018-05-04T07:08:22.767Z,100556.98
2018-05-04T07:10:50.311Z,100556.33
2018-05-04T07:13:17.692Z,100563.04
2018-05-04T07:15:45.091Z,100561.89
2018-05-04T07:18:12.459Z,100567.41
2018-05-04T07:20:39.932Z,100560.26
2018-05-04T07:23:07.350Z,100557.61
2018-05-04T07:25:34.748Z,100561.64
2018-05-04T07:28:02.126Z,100555.13
2018-05-04T07:30:29.806Z,100551.14
2018-05-04T07:32:57.416Z,100546.81
2018-05-04T07:35:24.810Z,100549.02
2018-05-04T07:37:52.203Z,100552.00
2018-05-04T07:40:19.611Z,100541.87
2018-05-04T07:42:47.015Z,100545.20
2018-05-04T07:45:14.506Z,100539.10
2018-05-04T07:47:41.876Z,100543.87
2018-05-04T07:50:09.280Z,100541.23
2018-05-04T07:52:36.653Z,100541.72
2018-05-04T07:55:04.039Z,100549.42
2018-05-04T07:57:31.443Z,100552.13
2018-05-04T07:59:58.830Z,100550.44
2018-05-04T08:02:26.235Z,100552.92
2018-05-04T08:04:53.661Z,100557.56
2018-05-04T08:07:21.051Z,100560.21
2018-05-04T08:09:48.513Z,100558.34
2018-05-04T08:12:15.842Z,100557.37
2018-05-04T08:14:43.547Z,100560.34
2018-05-04T08:17:10.955Z,100567.92
2018-05-04T08:19:38.371Z,100567.59
2018-05-04T08:22:05.742Z,100568.66
2018-05-04T08:24:33.175Z,100566.56
2018-05-04T08:27:00.608Z,100571.41
2018-05-04T08:29:27.989Z,100575.95
2018-05-04T08:31:55.416Z,100581.66
2018-05-04T08:34:22.782Z,100578.27
2018-05-04T08:36:50.176Z,100578.74
2018-05-04T08:39:17.551Z,100576.85
2018-05-04T08:41:44.947Z,100574.03
2018-05-04T08:44:12.316Z,100572.39
2018-05-04T08:46:40.817Z,100567.55
2018-05-04T08:49:08.263Z,100561.25
2018-05-04T08:51:35.679Z,100568.55
2018-05-04T08:54:03.072Z,100563.49
2018-05-04T08:56:30.522Z,100568.38
2018-05-04T08:58:57.927Z,100565.84
2018-05-04T09:01:25.349Z,100562.05
2018-05-04T09:03:52.729Z,100562.98
2018-05-04T09:06:22.246Z,100554.23
2018-05-04T09:08:50.595Z,100554.44
2018-05-04T09:11:17.988Z,100558.28
2018-05-04T09:13:45.461Z,100559.41
2018-05-04T09:16:12.847Z,100561.41
2018-05-04T09:18:40.308Z,100565.08
2018-05-04T09:21:07.698Z,100562.25
2018-05-04T09:23:35.082Z,100560.04
2018-05-04T09:26:02.470Z,100561.20
2018-05-04T09:28:30.026Z,100563.44
2018-05-04T09:30:57.820Z,100570.41
2018-05-04T09:33:25.350Z,100566.13
2018-05-04T09:35:52.783Z,100564.44
2018-05-04T09:38:20.160Z,100563.09
2018-05-04T09:40:47.547Z,100557.66
2018-05-04T09:43:14.932Z,100552.70
2018-05-04T09:45:42.311Z,100551.76
2018-05-04T09:48:09.721Z,100558.50
2018-05-04T09:50:37.127Z,100550.11
2018-05-04T09:53:04.525Z,100555.84
2018-05-04T09:55:31.910Z,100558.48
2018-05-04T09:57:59.307Z,100546.84
2018-05-04T10:00:26.796Z,100544.25
2018-05-04T10:02:54.205Z,100542.59
2018-05-04T10:05:21.594Z,100542.13
2018-05-04T10:07:49.147Z,100537.72
2018-05-04T10:10:16.626Z,100535.98
2018-05-04T10:12:44.032Z,100542.42
2018-05-04T10:15:11.400Z,100535.44
2018-05-04T10:17:38.798Z,100538.04
2018-05-04T10:20:06.571Z,100525.22
2018-05-04T10:22:33.996Z,100528.37
2018-05-04T10:25:01.373Z,100524.64
2018-05-04T10:27:28.762Z,100524.26
2018-05-04T10:29:56.157Z,100525.41
2018-05-04T10:32:23.530Z,100529.30
2018-05-04T10:34:50.928Z,100524.14
2018-05-04T10:37:18.318Z,100515.41
2018-05-04T10:39:45.689Z,100510.30
2018-05-04T10:42:13.242Z,100503.09
2018-05-04T10:44:40.647Z,100504.76
2018-05-04T10:47:08.045Z,100499.19
2018-05-04T10:49:35.423Z,100501.02
2018-05-04T10:52:02.903Z,100504.50
2018-05-04T10:54:30.289Z,100485.59
2018-05-04T10:56:57.699Z,100487.34
2018-05-04T10:59:25.072Z,100482.64
2018-05-04T11:01:52.495Z,100483.96
2018-05-04T11:04:19.879Z,100479.22
2018-05-04T11:06:47.287Z,100477.12
2018-05-04T11:09:14.671Z,100473.25
2018-05-04T11:11:42.042Z,100465.47
2018-05-04T11:14:09.420Z,100472.83
2018-05-04T11:16:36.842Z,100467.65
2018-05-04T11:19:04.231Z,100461.59
2018-05-04T11:21:31.651Z,100463.75
2018-05-04T11:23:59.115Z,100459.48
2018-05-04T11:26:26.505Z,100455.16
2018-05-04T11:28:53.888Z,100446.47
2018-05-04T11:31:21.285Z,100445.17
2018-05-04T11:33:48.647Z,100450.70
2018-05-04T11:36:16.039Z,100451.55
2018-05-04T11:38:43.419Z,100442.73
2018-05-04T11:41:10.798Z,100447.41
2018-05-04T11:43:38.187Z,100447.45
2018-05-04T11:46:05.592Z,100444.88
2018-05-04T11:48:32.962Z,100439.89
2018-05-04T11:51:00.493Z,100446.14
2018-05-04T11:53:27.854Z,100447.20
2018-05-04T11:55:55.259Z,100446.84
2018-05-04T11:58:22.686Z,100437.50
2018-05-04T12:00:50.056Z,100443.39
2018-05-04T12:03:17.516Z,100445.61
2018-05-04T12:05:44.933Z,100442.25
2018-05-04T12:08:16.471Z,100449.17
2018-05-04T12:10:43.971Z,100438.83
2018-05-04T12:13:11.308Z,100439.36
2018-05-04T12:15:38.744Z,100445.77
2018-05-04T12:18:06.128Z,100436.60
2018-05-04T12:20:34.392Z,100434.95
2018-05-04T12:23:01.927Z,100440.06
2018-05-04T12:25:29.406Z,100432.58
2018-05-04T12:27:56.807Z,100433.37
2018-05-04T12:30:24.309Z,100431.23
2018-05-04T12:32:51.628Z,100430.45
2018-05-04T12:35:19.033Z,100428.09
2018-05-04T12:37:46.419Z,100428.30
2018-05-04T12:40:14.242Z,100439.73
2018-05-04T12:42:41.660Z,100429.08
2018-05-04T12:45:09.123Z,100431.13
2018-05-04T12:47:36.523Z,100434.19
2018-05-04T12:50:04.059Z,100432.94
2018-05-04T12:52:31.536Z,100433.55
2018-05-04T12:54:59.000Z,100428.13
2018-05-04T12:57:26.471Z,100427.38
2018-05-04T12:59:53.898Z,100413.53
2018-05-04T13:02:21.319Z,100417.31
2018-05-04T13:04:48.965Z,100425.78
2018-05-04T13:07:16.391Z,100414.86
2018-05-04T13:09:43.836Z,100408.51
2018-05-04T13:12:11.231Z,100414.18
2018-05-04T13:14:38.616Z,100408.67
2018-05-04T13:17:06.050Z,100411.19
2018-05-04T13:19:33.453Z,100397.22
2018-05-04T13:22:00.834Z,100396.68
2018-05-04T13:24:28.220Z,100393.67
2018-05-04T13:26:55.636Z,100398.09
2018-05-04T13:29:23.037Z,100400.31
2018-05-04T13:31:50.442Z,100395.09
2018-05-04T13:34:17.837Z,100393.36
2018-05-04T13:36:45.240Z,100397.56
2018-05-04T13:39:12.684Z,100392.33
2018-05-04T13:41:40.103Z,100396.31
2018-05-04T13:44:07.671Z,100395.46
2018-05-04T13:46:35.092Z,100387.66
2018-05-04T13:49:02.474Z,100388.12
2018-05-04T13:51:30.234Z,100388.48
2018-05-04T13:53:57.814Z,100387.14
2018-05-04T13:56:25.234Z,100390.38
2018-05-04T13:58:52.823Z,100393.27
2018-05-04T14:01:20.238Z,100392.44
2018-05-04T14:03:49.613Z,100386.67
2018-05-04T14:06:17.034Z,100384.05
2018-05-04T14:08:44.432Z,100386.05
2018-05-04T14:11:11.990Z,100380.53
2018-05-04T14:13:39.408Z,100379.81
2018-05-04T14:16:08.041Z,100372.97
2018-05-04T14:18:35.487Z,100376.84
2018-05-04T14:21:02.901Z,100377.11
2018-05-04T14:23:30.315Z,100367.95
2018-05-04T14:25:57.733Z,100377.77
2018-05-04T14:28:25.203Z,100373.80
2018-05-04T14:30:52.650Z,100364.84
2018-05-04T14:33:20.311Z,100364.53
2018-05-04T14:35:47.796Z,100375.72
2018-05-04T14:38:15.938Z,100371.18
2018-05-04T14:40:44.191Z,100360.59
2018-05-04T14:43:11.969Z,100361.78
2018-05-04T14:45:39.355Z,100362.61
2018-05-04T14:48:06.758Z,100362.25
2018-05-04T14:50:34.147Z,100366.75
2018-05-04T14:53:02.907Z,100372.92
2018-05-04T14:55:30.938Z,100363.06
2018-05-04T14:57:58.603Z,100373.38
2018-05-04T15:00:25.984Z,100373.39
2018-05-04T15:02:53.486Z,100375.97
2018-05-04T15:05:20.972Z,100367.77
2018-05-04T15:07:49.156Z,100377.52
2018-05-04T15:10:16.675Z,100374.33
2018-05-04T15:12:44.077Z,100381.64
2018-05-04T15:15:11.490Z,100373.27
2018-05-04T15:17:39.021Z,100373.08
2018-05-04T15:20:06.440Z,100373.81
2018-05-04T15:22:33.863Z,100373.03
2018-05-04T15:25:01.375Z,100368.63
2018-05-04T15:27:28.677Z,100376.86
2018-05-04T15:29:56.204Z,100375.16
2018-05-04T15:32:23.831Z,100384.41
2018-05-04T15:34:52.171Z,100379.45
2018-05-04T15:37:19.564Z,100380.05
2018-05-04T15:39:46.951Z,100374.41
2018-05-04T15:42:14.334Z,100378.84
2018-05-04T15:44:41.724Z,100381.55
2018-05-04T15:47:09.144Z,100383.84
2018-05-04T15:49:36.601Z,100384.53
2018-05-04T15:52:04.449Z,100386.78
2018-05-04T15:54:31.931Z,100384.12
2018-05-04T15:57:00.477Z,100379.35
2018-05-04T15:59:29.220Z,100384.33
2018-05-04T16:01:56.745Z,100388.11
2018-05-04T16:04:26.094Z,100390.81
2018-05-04T16:06:53.501Z,100387.53
2018-05-04T16:09:21.388Z,100379.17
2018-05-04T16:11:50.074Z,100398.62
2018-05-04T16:14:18.272Z,100390.56
2018-05-04T16:16:45.659Z,100400.11
2018-05-04T16:19:13.081Z,100399.83
2018-05-04T16:21:40.476Z,100396.77
2018-05-04T16:24:07.872Z,100402.50
2018-05-04T16:26:35.255Z,100406.41
2018-05-04T16:29:02.669Z,100405.38
2018-05-04T16:31:30.093Z,100406.38
2018-05-04T16:33:57.504Z,100407.94
2018-05-04T16:36:24.926Z,100414.62
2018-05-04T16:38:52.307Z,100413.49
2018-05-04T16:41:20.347Z,100414.88
2018-05-04T16:43:47.731Z,100415.89
2018-05-04T16:46:20.793Z,100419.84
2018-05-04T16:48:53.707Z,100425.25
2018-05-04T16:51:21.088Z,100423.87
2018-05-04T16:53:48.501Z,100434.00
2018-05-04T16:56:15.874Z,100434.13
2018-05-04T16:58:43.263Z,100431.07
2018-05-04T17:01:10.937Z,100437.56
2018-05-04T17:03:39.194Z,100446.08
2018-05-04T17:06:06.575Z,100440.52
2018-05-04T17:08:33.968Z,100440.13
2018-05-04T17:11:01.367Z,100443.55
2018-05-04T17:13:28.790Z,100444.34
2018-05-04T17:15:56.211Z,100450.64
2018-05-04T17:18:23.589Z,100453.38
2018-05-04T17:20:51.939Z,100449.41
2018-05-04T17:23:20.552Z,100456.92
2018-05-04T17:25:48.408Z,100458.13
2018-05-04T17:28:15.791Z,100461.89
2018-05-04T17:30:46.636Z,100468.23
2018-05-04T17:33:14.060Z,100463.47
2018-05-04T17:35:43.166Z,100477.48
2018-05-04T17:38:10.579Z,100475.63
2018-05-04T17:40:38.016Z,100481.41
2018-05-04T17:43:05.404Z,100478.95
2018-05-04T17:45:32.792Z,100483.38
2018-05-04T17:48:00.286Z,100486.84
2018-05-04T17:50:27.677Z,100489.48
2018-05-04T17:52:55.078Z,100488.70
2018-05-04T17:55:22.487Z,100488.28
2018-05-04T17:57:49.879Z,100489.98
2018-05-04T18:00:17.265Z,100488.73
2018-05-04T18:02:44.673Z,100494.77
2018-05-04T18:05:12.047Z,100496.09
2018-05-04T18:07:39.469Z,100498.70
2018-05-04T18:10:06.839Z,100490.56
2018-05-04T18:12:34.239Z,100497.97
2018-05-04T18:15:01.716Z,100500.56
2018-05-04T18:17:29.191Z,100498.84
2018-05-04T18:19:56.510Z,100506.24
2018-05-04T18:22:23.904Z,100511.89
2018-05-04T18:24:51.292Z,100513.59
2018-05-04T18:27:18.692Z,100516.62
2018-05-04T18:29:46.085Z,100521.84
2018-05-04T18:32:13.491Z,100529.19
2018-05-04T18:34:40.979Z,100531.81
2018-05-04T18:37:08.391Z,100533.95
2018-05-04T18:39:35.790Z,100542.59
2018-05-04T18:42:03.182Z,100542.08
2018-05-04T18:44:30.575Z,100541.29
2018-05-04T18:46:57.981Z,100550.80
2018-05-04T18:49:25.419Z,100548.08
2018-05-04T18:51:52.812Z,100559.75
2018-05-04T18:54:20.218Z,100555.37
2018-05-04T18:56:47.837Z,100554.03
2018-05-04T18:59:15.211Z,100561.84
2018-05-04T19:01:42.612Z,100561.83
2018-05-04T19:04:10.003Z,100570.34
2018-05-04T19:06:37.437Z,100575.60
2018-05-04T19:09:04.848Z,100576.83
2018-05-04T19:11:32.254Z,100579.83
2018-05-04T19:13:59.660Z,100587.67
2018-05-04T19:16:27.057Z,100597.39
2018-05-04T19:18:54.477Z,100596.52
2018-05-04T19:21:22.083Z,100598.27
2018-05-04T19:23:49.490Z,100598.19
2018-05-04T19:26:16.879Z,100600.94
2018-05-04T19:28:44.556Z,100599.68
2018-05-04T19:31:12.604Z,100607.43
2018-05-04T19:33:39.999Z,100604.54
2018-05-04T19:36:07.402Z,100611.05
2018-05-04T19:38:34.851Z,100612.31
2018-05-04T19:41:02.237Z,100615.34
2018-05-04T19:43:29.651Z,100621.06
2018-05-04T19:45:57.038Z,100618.72
2018-05-04T19:48:24.569Z,100620.45
2018-05-04T19:50:51.868Z,100626.41
2018-05-04T19:53:19.278Z,100630.17
2018-05-04T19:55:46.663Z,100631.47
2018-05-04T19:58:14.114Z,100631.80
2018-05-04T20:00:41.586Z,100633.59
2018-05-04T20:03:08.986Z,100632.09
2018-05-04T20:05:36.394Z,100636.04
2018-05-04T20:08:03.761Z,100634.30
2018-05-04T20:10:31.206Z,100641.67
2018-05-04T20:12:58.656Z,100639.42
2018-05-04T20:15:26.968Z,100634.98
2018-05-04T20:17:54.357Z,100641.41
2018-05-04T20:20:21.866Z,100649.27
2018-05-04T20:22:49.236Z,100651.83
2018-05-04T20:25:16.637Z,100653.76
2018-05-04T20:27:44.032Z,100654.67
2018-05-04T20:30:11.519Z,100657.97
2018-05-04T20:32:38.931Z,100656.64
2018-05-04T20:35:06.484Z,100667.53
2018-05-04T20:37:33.908Z,100658.94
2018-05-04T20:40:01.326Z,100665.11
2018-05-04T20:42:28.739Z,100662.27
2018-05-04T20:44:56.123Z,100671.74
2018-05-04T20:47:23.485Z,100680.83
2018-05-04T20:49:50.899Z,100682.20
2018-05-04T20:52:18.276Z,100685.91
2018-05-04T20:54:45.691Z,100687.14
2018-05-04T20:57:13.106Z,100692.90
2018-05-04T21:02:17.399Z,100695.84
2018-05-04T21:04:44.816Z,100696.08
2018-05-04T21:07:12.201Z,100695.09
2018-05-04T21:09:39.607Z,100693.20
2018-05-04T21:12:06.987Z,100698.89
2018-05-04T21:14:34.382Z,100697.98
2018-05-04T21:17:01.995Z,100700.42
2018-05-04T21:19:29.446Z,100697.45
2018-05-04T21:21:56.838Z,100709.04
2018-05-04T21:24:24.780Z,100708.97
2018-05-04T21:26:52.214Z,100715.27
2018-05-04T21:29:19.595Z,100716.56
2018-05-04T21:31:47.041Z,100713.84
2018-05-04T21:34:14.427Z,100718.77
2018-05-04T21:36:41.813Z,100710.70
2018-05-04T21:39:09.227Z,100717.56
2018-05-04T21:41:36.608Z,100722.09
2018-05-04T21:44:04.869Z,100720.58
2018-05-04T21:46:32.256Z,100719.20
2018-05-04T21:48:59.646Z,100717.79
2018-05-04T21:51:27.043Z,100717.08
2018-05-04T21:53:54.451Z,100728.39
2018-05-04T21:56:23.114Z,100725.27
2018-05-04T21:58:50.503Z,100727.13
2018-05-04T22:01:17.877Z,100727.11
2018-05-04T22:03:45.328Z,100727.03
2018-05-04T22:06:12.700Z,100731.25
2018-05-04T22:08:40.100Z,100728.05
2018-05-04T22:11:07.493Z,100727.06
2018-05-04T22:13:34.852Z,100729.73
2018-05-04T22:16:02.239Z,100735.05
2018-05-04T22:18:29.634Z,100733.80
2018-05-04T22:20:57.009Z,100731.67
2018-05-04T22:23:24.388Z,100729.48
2018-05-04T22:25:51.763Z,100738.70
2018-05-04T22:28:19.146Z,100737.51
2018-05-04T22:30:46.539Z,100746.56
2018-05-04T22:33:13.911Z,100742.93
2018-05-04T22:35:41.299Z,100740.93
2018-05-04T22:38:08.678Z,100740.75
2018-05-04T22:40:36.064Z,100750.34
2018-05-04T22:43:03.439Z,100748.58
2018-05-04T22:45:30.820Z,100750.72
2018-05-04T22:47:58.202Z,100748.00
2018-05-04T22:50:25.593Z,100748.89
2018-05-04T22:52:52.964Z,100752.44
2018-05-04T22:55:20.360Z,100751.47
2018-05-04T22:57:47.739Z,100754.77
2018-05-04T23:00:18.703Z,100755.61
2018-05-04T23:02:46.071Z,100766.91
2018-05-04T23:05:13.462Z,100759.69
2018-05-04T23:07:40.836Z,100756.64
2018-05-04T23:10:08.220Z,100760.98
2018-05-04T23:12:35.599Z,100750.10
2018-05-04T23:15:02.988Z,100748.14
2018-05-04T23:17:30.370Z,100747.92
2018-05-04T23:19:57.746Z,100753.50
2018-05-04T23:22:28.925Z,100757.34
2018-05-04T23:24:56.310Z,100763.98
2018-05-04T23:27:23.682Z,100765.06
2018-05-04T23:29:51.073Z,100767.17
2018-05-04T23:32:18.443Z,100760.58
2018-05-04T23:34:45.838Z,100763.11
2018-05-04T23:37:13.226Z,100767.46
2018-05-04T23:39:40.600Z,100771.63
2018-05-04T23:42:07.983Z,100772.34
2018-05-04T23:44:35.378Z,100765.09
2018-05-04T23:47:02.753Z,100770.45
2018-05-04T23:49:30.132Z,100773.88
2018-05-04T23:51:57.517Z,100766.12
2018-05-04T23:54:24.889Z,100770.67
2018-05-04T23:56:52.271Z,100765.00
2018-05-04T23:59:19.650Z,100770.41
